sensor_id;sensor_type;location;lat;lon;timestamp;pressure;altitude;pressure_sealevel;temperature;humidity
32298;BME280;18782;48.984;8.548;2023-08-08T00:01:15;100069.97;;;14.61;86.93
32298;BME280;18782;48.984;8.548;2023-08-08T00:03:43;100070.88;;;14.65;86.50
32298;BME280;18782;48.984;8.548;2023-08-08T00:06:11;100066.56;;;14.62;86.54
32298;BME280;18782;48.984;8.548;2023-08-08T00:08:40;100069.91;;;14.52;87.38
32298;BME280;18782;48.984;8.548;2023-08-08T00:11:07;100062.00;;;14.44;88.34
32298;BME280;18782;48.984;8.548;2023-08-08T00:13:36;100057.63;;;14.35;89.16
32298;BME280;18782;48.984;8.548;2023-08-08T00:16:04;100060.97;;;14.28;88.70
32298;BME280;18782;48.984;8.548;2023-08-08T00:18:32;100056.66;;;14.27;89.45
32298;BME280;18782;48.984;8.548;2023-08-08T00:21:00;100048.81;;;14.21;89.03
32298;BME280;18782;48.984;8.548;2023-08-08T00:23:27;100057.47;;;14.23;89.31
32298;BME280;18782;48.984;8.548;2023-08-08T00:25:56;100052.28;;;14.25;89.39
32298;BME280;18782;48.984;8.548;2023-08-08T00:28:24;100053.19;;;14.25;89.57
32298;BME280;18782;48.984;8.548;2023-08-08T00:30:52;100050.69;;;14.34;89.63
32298;BME280;18782;48.984;8.548;2023-08-08T00:33:20;100050.72;;;14.38;89.01
32298;BME280;18782;48.984;8.548;2023-08-08T00:35:47;100055.84;;;14.33;88.78
32298;BME280;18782;48.984;8.548;2023-08-08T00:38:15;100045.50;;;14.31;89.43
32298;BME280;18782;48.984;8.548;2023-08-08T00:40:44;100047.22;;;14.32;88.99
32298;BME280;18782;48.984;8.548;2023-08-08T00:43:13;100052.34;;;14.29;88.95
32298;BME280;18782;48.984;8.548;2023-08-08T00:45:42;100050.59;;;14.25;90.15
32298;BME280;18782;48.984;8.548;2023-08-08T00:48:11;100057.56;;;14.32;89.41
32298;BME280;18782;48.984;8.548;2023-08-08T00:50:43;100043.78;;;14.33;88.75
32298;BME280;18782;48.984;8.548;2023-08-08T00:53:11;100043.72;;;14.27;88.59
32298;BME280;18782;48.984;8.548;2023-08-08T00:55:39;100040.16;;;14.19;90.47
32298;BME280;18782;48.984;8.548;2023-08-08T00:58:07;100042.00;;;14.29;90.61
32298;BME280;18782;48.984;8.548;2023-08-08T01:00:36;100036.06;;;14.38;89.87
32298;BME280;18782;48.984;8.548;2023-08-08T01:03:04;100031.88;;;14.48;89.31
32298;BME280;18782;48.984;8.548;2023-08-08T01:05:37;100036.09;;;14.43;89.41
32298;BME280;18782;48.984;8.548;2023-08-08T01:08:07;100028.28;;;14.36;89.20
32298;BME280;18782;48.984;8.548;2023-08-08T01:10:38;100031.63;;;14.29;89.55
32298;BME280;18782;48.984;8.548;2023-08-08T01:13:09;100033.31;;;14.24;90.91
32298;BME280;18782;48.984;8.548;2023-08-08T01:15:39;100041.06;;;14.21;91.07
32298;BME280;18782;48.984;8.548;2023-08-08T01:18:09;100034.97;;;14.16;90.52
32298;BME280;18782;48.984;8.548;2023-08-08T01:20:38;100027.13;;;14.10;91.12
32298;BME280;18782;48.984;8.548;2023-08-08T01:23:11;100030.59;;;14.14;91.23
32298;BME280;18782;48.984;8.548;2023-08-08T01:25:42;100022.72;;;14.03;91.52
32298;BME280;18782;48.984;8.548;2023-08-08T01:28:11;100028.75;;;14.00;91.73
32298;BME280;18782;48.984;8.548;2023-08-08T01:30:38;100032.13;;;13.95;92.07
32298;BME280;18782;48.984;8.548;2023-08-08T01:33:06;100032.94;;;13.94;93.18
32298;BME280;18782;48.984;8.548;2023-08-08T01:35:37;100031.16;;;13.87;92.65
32298;BME280;18782;48.984;8.548;2023-08-08T01:38:11;100034.66;;;13.89;92.58
32298;BME280;18782;48.984;8.548;2023-08-08T01:40:43;100036.38;;;13.90;92.35
32298;BME280;18782;48.984;8.548;2023-08-08T01:43:12;100027.69;;;13.86;92.51
32298;BME280;18782;48.984;8.548;2023-08-08T01:45:40;100035.47;;;13.86;92.75
32298;BME280;18782;48.984;8.548;2023-08-08T01:48:09;100033.72;;;13.85;93.37
32298;BME280;18782;48.984;8.548;2023-08-08T01:50:38;100032.88;;;13.88;93.72
32298;BME280;18782;48.984;8.548;2023-08-08T01:53:05;100026.84;;;13.87;93.82
32298;BME280;18782;48.984;8.548;2023-08-08T01:55:33;100029.41;;;13.86;93.71
32298;BME280;18782;48.984;8.548;2023-08-08T01:58:02;100022.47;;;13.81;93.35
32298;BME280;18782;48.984;8.548;2023-08-08T02:00:30;100015.44;;;13.71;94.20
32298;BME280;18782;48.984;8.548;2023-08-08T02:02:58;100020.59;;;13.68;94.47
32298;BME280;18782;48.984;8.548;2023-08-08T02:05:26;100020.53;;;13.65;94.75
32298;BME280;18782;48.984;8.548;2023-08-08T02:07:53;100022.31;;;13.69;94.82
32298;BME280;18782;48.984;8.548;2023-08-08T02:10:22;100024.88;;;13.68;94.00
32298;BME280;18782;48.984;8.548;2023-08-08T02:12:49;100030.81;;;13.62;94.46
32298;BME280;18782;48.984;8.548;2023-08-08T02:15:19;100029.00;;;13.55;94.66
32298;BME280;18782;48.984;8.548;2023-08-08T02:17:46;100028.13;;;13.53;95.98
32298;BME280;18782;48.984;8.548;2023-08-08T02:20:14;100022.88;;;13.47;95.41
32298;BME280;18782;48.984;8.548;2023-08-08T02:22:42;100005.59;;;13.43;96.00
32298;BME280;18782;48.984;8.548;2023-08-08T02:25:09;100007.19;;;13.36;95.84
32298;BME280;18782;48.984;8.548;2023-08-08T02:27:37;100005.59;;;13.44;97.61
32298;BME280;18782;48.984;8.548;2023-08-08T02:30:09;100009.94;;;13.47;96.18
32298;BME280;18782;48.984;8.548;2023-08-08T02:32:39;100004.72;;;13.44;96.38
32298;BME280;18782;48.984;8.548;2023-08-08T02:35:07;100000.38;;;13.41;96.46
32298;BME280;18782;48.984;8.548;2023-08-08T02:37:35;99996.13;;;13.45;97.64
32298;BME280;18782;48.984;8.548;2023-08-08T02:40:03;100005.53;;;13.40;96.41
32298;BME280;18782;48.984;8.548;2023-08-08T02:42:31;100007.94;;;13.27;96.64
32298;BME280;18782;48.984;8.548;2023-08-08T02:44:59;100009.69;;;13.28;97.05
32298;BME280;18782;48.984;8.548;2023-08-08T02:47:27;100013.13;;;13.27;96.98
32298;BME280;18782;48.984;8.548;2023-08-08T02:49:56;100011.38;;;13.26;97.76
32298;BME280;18782;48.984;8.548;2023-08-08T02:52:24;100013.25;;;13.37;97.88
32298;BME280;18782;48.984;8.548;2023-08-08T02:54:51;100028.13;;;13.53;97.53
32298;BME280;18782;48.984;8.548;2023-08-08T02:57:19;100020.59;;;13.70;96.27
32298;BME280;18782;48.984;8.548;2023-08-08T02:59:47;100026.84;;;13.87;95.42
32298;BME280;18782;48.984;8.548;2023-08-08T03:02:15;100022.72;;;14.03;94.19
32298;BME280;18782;48.984;8.548;2023-08-08T03:04:44;100021.84;;;14.04;93.57
32298;BME280;18782;48.984;8.548;2023-08-08T03:07:13;100018.56;;;14.16;92.99
32298;BME280;18782;48.984;8.548;2023-08-08T03:09:41;100021.13;;;14.14;92.83
32298;BME280;18782;48.984;8.548;2023-08-08T03:12:11;100013.31;;;14.09;92.41
32298;BME280;18782;48.984;8.548;2023-08-08T03:14:39;100021.16;;;14.17;92.56
32298;BME280;18782;48.984;8.548;2023-08-08T03:17:06;100019.44;;;14.19;92.77
32298;BME280;18782;48.984;8.548;2023-08-08T03:19:34;100015.13;;;14.17;92.88
32298;BME280;18782;48.984;8.548;2023-08-08T03:22:03;100017.59;;;14.09;92.84
32298;BME280;18782;48.984;8.548;2023-08-08T03:24:35;100018.56;;;14.16;92.22
32298;BME280;18782;48.984;8.548;2023-08-08T03:27:04;100022.88;;;14.17;92.58
32298;BME280;18782;48.984;8.548;2023-08-08T03:29:31;100016.84;;;14.16;92.80
32298;BME280;18782;48.984;8.548;2023-08-08T03:31:59;100030.63;;;14.15;92.75
32298;BME280;18782;48.984;8.548;2023-08-08T03:34:31;100021.97;;;14.15;92.30
32298;BME280;18782;48.984;8.548;2023-08-08T03:37:00;100027.94;;;14.06;92.43
32298;BME280;18782;48.984;8.548;2023-08-08T03:39:27;100018.41;;;14.03;93.00
32298;BME280;18782;48.984;8.548;2023-08-08T03:41:56;100032.19;;;14.01;93.38
32298;BME280;18782;48.984;8.548;2023-08-08T03:44:24;100027.81;;;13.97;93.68
32298;BME280;18782;48.984;8.548;2023-08-08T03:46:52;100022.66;;;13.98;93.84
32298;BME280;18782;48.984;8.548;2023-08-08T03:49:35;100023.50;;;13.97;93.59
32298;BME280;18782;48.984;8.548;2023-08-08T03:52:03;100030.66;;;14.17;93.67
32298;BME280;18782;48.984;8.548;2023-08-08T03:54:31;100015.06;;;14.10;92.82
32298;BME280;18782;48.984;8.548;2023-08-08T03:57:00;100027.06;;;14.05;93.58
32298;BME280;18782;48.984;8.548;2023-08-08T03:59:28;100028.06;;;14.18;93.34
32298;BME280;18782;48.984;8.548;2023-08-08T04:01:56;100026.34;;;14.17;93.21
32298;BME280;18782;48.984;8.548;2023-08-08T04:04:24;100023.81;;;14.22;92.96
32298;BME280;18782;48.984;8.548;2023-08-08T04:06:52;100021.25;;;14.26;92.87
32298;BME280;18782;48.984;8.548;2023-08-08T04:09:20;100017.78;;;14.24;92.08
32298;BME280;18782;48.984;8.548;2023-08-08T04:11:48;100024.78;;;14.31;92.15
32298;BME280;18782;48.984;8.548;2023-08-08T04:14:17;100021.22;;;14.23;88.14
32298;BME280;18782;48.984;8.548;2023-08-08T04:16:45;100023.09;;;14.36;90.48
32298;BME280;18782;48.984;8.548;2023-08-08T04:19:13;100011.00;;;14.35;87.63
32298;BME280;18782;48.984;8.548;2023-08-08T04:21:40;100020.53;;;14.40;88.14
32298;BME280;18782;48.984;8.548;2023-08-08T04:24:08;100022.31;;;14.45;88.40
32298;BME280;18782;48.984;8.548;2023-08-08T04:26:36;100025.88;;;14.52;88.01
32298;BME280;18782;48.984;8.548;2023-08-08T04:29:05;100023.28;;;14.55;87.61
32298;BME280;18782;48.984;8.548;2023-08-08T04:31:34;100024.16;;;14.52;85.41
32298;BME280;18782;48.984;8.548;2023-08-08T04:34:02;100018.25;;;14.67;86.36
32298;BME280;18782;48.984;8.548;2023-08-08T04:36:29;100033.81;;;14.69;86.38
32298;BME280;18782;48.984;8.548;2023-08-08T04:38:57;100039.91;;;14.75;86.00
32298;BME280;18782;48.984;8.548;2023-08-08T04:41:25;100046.00;;;14.80;87.00
32298;BME280;18782;48.984;8.548;2023-08-08T04:43:53;100043.44;;;14.83;86.16
32298;BME280;18782;48.984;8.548;2023-08-08T04:46:20;100045.09;;;14.75;82.82
32298;BME280;18782;48.984;8.548;2023-08-08T04:48:49;100046.00;;;14.80;82.37
32298;BME280;18782;48.984;8.548;2023-08-08T04:51:17;100042.56;;;14.84;81.57
32298;BME280;18782;48.984;8.548;2023-08-08T04:53:45;100053.00;;;14.91;81.80
32298;BME280;18782;48.984;8.548;2023-08-08T04:56:12;100056.56;;;15.06;81.17
32298;BME280;18782;48.984;8.548;2023-08-08T04:58:40;100054.88;;;15.10;79.98
32298;BME280;18782;48.984;8.548;2023-08-08T05:01:08;100054.97;;;15.24;81.35
32298;BME280;18782;48.984;8.548;2023-08-08T05:03:40;100054.97;;;15.22;79.42
32298;BME280;18782;48.984;8.548;2023-08-08T05:06:09;100052.38;;;15.24;78.77
32298;BME280;18782;48.984;8.548;2023-08-08T05:08:37;100055.03;;;15.31;80.22
32298;BME280;18782;48.984;8.548;2023-08-08T05:11:04;100058.50;;;15.33;78.41
32298;BME280;18782;48.984;8.548;2023-08-08T05:13:32;100058.56;;;15.43;79.33
32298;BME280;18782;48.984;8.548;2023-08-08T05:16:00;100054.28;;;15.48;80.03
32298;BME280;18782;48.984;8.548;2023-08-08T05:18:27;100053.41;;;15.49;77.93
32298;BME280;18782;48.984;8.548;2023-08-08T05:20:55;100063.88;;;15.61;77.43
32298;BME280;18782;48.984;8.548;2023-08-08T05:23:24;100059.53;;;15.58;77.24
32298;BME280;18782;48.984;8.548;2023-08-08T05:25:52;100055.22;;;15.59;76.92
32298;BME280;18782;48.984;8.548;2023-08-08T05:28:19;100050.88;;;15.58;78.11
32298;BME280;18782;48.984;8.548;2023-08-08T05:30:47;100052.63;;;15.60;77.53
32298;BME280;18782;48.984;8.548;2023-08-08T05:33:15;100047.44;;;15.57;77.42
32298;BME280;18782;48.984;8.548;2023-08-08T05:35:43;100043.97;;;15.58;77.35
32298;BME280;18782;48.984;8.548;2023-08-08T05:38:10;100044.84;;;15.59;76.66
32298;BME280;18782;48.984;8.548;2023-08-08T05:40:39;100041.47;;;15.69;77.10
32298;BME280;18782;48.984;8.548;2023-08-08T05:43:07;100041.50;;;15.72;76.39
32298;BME280;18782;48.984;8.548;2023-08-08T05:45:35;100041.47;;;15.75;76.29
32298;BME280;18782;48.984;8.548;2023-08-08T05:48:03;100045.00;;;15.86;75.36
32298;BME280;18782;48.984;8.548;2023-08-08T05:50:31;100038.13;;;15.95;75.23
32298;BME280;18782;48.984;8.548;2023-08-08T05:52:59;100044.19;;;16.01;74.53
32298;BME280;18782;48.984;8.548;2023-08-08T05:55:27;100048.56;;;16.04;75.01
32298;BME280;18782;48.984;8.548;2023-08-08T05:57:56;100045.13;;;16.17;74.40
32298;BME280;18782;48.984;8.548;2023-08-08T06:00:23;100047.75;;;16.20;73.40
32298;BME280;18782;48.984;8.548;2023-08-08T06:02:51;100040.84;;;16.31;72.98
32298;BME280;18782;48.984;8.548;2023-08-08T06:05:21;100044.31;;;16.32;73.06
32298;BME280;18782;48.984;8.548;2023-08-08T06:07:49;100052.09;;;16.33;73.05
32298;BME280;18782;48.984;8.548;2023-08-08T06:10:17;100050.38;;;16.29;73.09
32298;BME280;18782;48.984;8.548;2023-08-08T06:12:44;100052.09;;;16.30;73.33
32298;BME280;18782;48.984;8.548;2023-08-08T06:15:13;100057.31;;;16.36;72.13
32298;BME280;18782;48.984;8.548;2023-08-08T06:17:41;100057.34;;;16.46;72.23
32298;BME280;18782;48.984;8.548;2023-08-08T06:20:09;100049.53;;;16.42;72.60
32298;BME280;18782;48.984;8.548;2023-08-08T06:22:37;100052.13;;;16.42;72.85
32298;BME280;18782;48.984;8.548;2023-08-08T06:25:06;100055.59;;;16.44;73.08
32298;BME280;18782;48.984;8.548;2023-08-08T06:27:33;100050.41;;;16.51;71.88
32298;BME280;18782;48.984;8.548;2023-08-08T06:30:01;100053.03;;;16.57;72.05
32298;BME280;18782;48.984;8.548;2023-08-08T06:32:31;100050.44;;;16.57;72.23
32298;BME280;18782;48.984;8.548;2023-08-08T06:34:59;100055.59;;;16.60;71.89
32298;BME280;18782;48.984;8.548;2023-08-08T06:37:26;100047.81;;;16.58;72.65
32298;BME280;18782;48.984;8.548;2023-08-08T06:39:54;100052.16;;;16.61;72.29
32298;BME280;18782;48.984;8.548;2023-08-08T06:42:22;100059.06;;;16.59;72.03
32298;BME280;18782;48.984;8.548;2023-08-08T06:44:55;100040.91;;;16.60;72.36
32298;BME280;18782;48.984;8.548;2023-08-08T06:47:23;100050.44;;;16.69;72.68
32298;BME280;18782;48.984;8.548;2023-08-08T06:49:51;100046.13;;;16.76;71.76
32298;BME280;18782;48.984;8.548;2023-08-08T06:52:20;100059.97;;;16.65;71.27
32298;BME280;18782;48.984;8.548;2023-08-08T06:54:48;100054.81;;;16.73;71.54
32298;BME280;18782;48.984;8.548;2023-08-08T06:57:15;100060.03;;;16.88;70.82
32298;BME280;18782;48.984;8.548;2023-08-08T06:59:43;100056.53;;;16.85;70.68
32298;BME280;18782;48.984;8.548;2023-08-08T07:02:12;100060.00;;;16.84;70.76
32298;BME280;18782;48.984;8.548;2023-08-08T07:04:40;100052.22;;;16.88;70.22
32298;BME280;18782;48.984;8.548;2023-08-08T07:07:09;100051.38;;;16.88;70.09
32298;BME280;18782;48.984;8.548;2023-08-08T07:09:37;100052.22;;;16.85;70.43
32298;BME280;18782;48.984;8.548;2023-08-08T07:12:06;100041.84;;;16.91;70.52
32298;BME280;18782;48.984;8.548;2023-08-08T07:14:33;100041.84;;;16.98;70.70
32298;BME280;18782;48.984;8.548;2023-08-08T07:17:01;100045.28;;;17.06;70.41
32298;BME280;18782;48.984;8.548;2023-08-08T07:19:30;100034.00;;;17.11;70.36
32298;BME280;18782;48.984;8.548;2023-08-08T07:21:58;100034.88;;;17.18;69.52
32298;BME280;18782;48.984;8.548;2023-08-08T07:24:27;100031.41;;;17.19;68.05
32298;BME280;18782;48.984;8.548;2023-08-08T07:26:55;100029.69;;;17.24;68.50
32298;BME280;18782;48.984;8.548;2023-08-08T07:29:23;100026.22;;;17.28;68.99
32298;BME280;18782;48.984;8.548;2023-08-08T07:31:52;100026.22;;;17.28;68.58
32298;BME280;18782;48.984;8.548;2023-08-08T07:34:20;100034.84;;;17.39;67.55
32298;BME280;18782;48.984;8.548;2023-08-08T07:36:48;100027.94;;;17.34;66.90
32298;BME280;18782;48.984;8.548;2023-08-08T07:39:16;100028.78;;;17.37;67.67
32298;BME280;18782;48.984;8.548;2023-08-08T07:41:45;100039.19;;;17.42;67.27
32298;BME280;18782;48.984;8.548;2023-08-08T07:44:13;100038.31;;;17.32;67.93
32298;BME280;18782;48.984;8.548;2023-08-08T07:46:40;100028.78;;;17.40;67.87
32298;BME280;18782;48.984;8.548;2023-08-08T07:49:08;100029.66;;;17.36;68.37
32298;BME280;18782;48.984;8.548;2023-08-08T07:51:36;100029.66;;;17.33;68.78
32298;BME280;18782;48.984;8.548;2023-08-08T07:54:04;100029.66;;;17.36;68.68
32298;BME280;18782;48.984;8.548;2023-08-08T07:56:35;100021.84;;;17.39;67.36
32298;BME280;18782;48.984;8.548;2023-08-08T07:59:04;100017.50;;;17.49;67.52
32298;BME280;18782;48.984;8.548;2023-08-08T08:01:32;100024.38;;;17.58;67.82
32298;BME280;18782;48.984;8.548;2023-08-08T08:04:00;100027.81;;;17.72;67.16
32298;BME280;18782;48.984;8.548;2023-08-08T08:06:29;100039.94;;;17.88;65.77
32298;BME280;18782;48.984;8.548;2023-08-08T08:08:57;100028.66;;;17.91;66.42
32298;BME280;18782;48.984;8.548;2023-08-08T08:11:24;100026.03;;;17.92;66.03
32298;BME280;18782;48.984;8.548;2023-08-08T08:13:52;100026.88;;;17.99;66.63
32298;BME280;18782;48.984;8.548;2023-08-08T08:16:22;100025.94;;;18.11;64.92
32298;BME280;18782;48.984;8.548;2023-08-08T08:18:50;100015.47;;;18.20;65.06
32298;BME280;18782;48.984;8.548;2023-08-08T08:21:18;100028.44;;;18.31;65.07
32298;BME280;18782;48.984;8.548;2023-08-08T08:23:46;100017.06;;;18.42;64.22
32298;BME280;18782;48.984;8.548;2023-08-08T08:26:14;100015.34;;;18.44;64.83
32298;BME280;18782;48.984;8.548;2023-08-08T08:28:41;100021.41;;;18.45;64.00
32298;BME280;18782;48.984;8.548;2023-08-08T08:31:09;100022.25;;;18.51;63.62
32298;BME280;18782;48.984;8.548;2023-08-08T08:33:38;100009.25;;;18.45;63.67
32298;BME280;18782;48.984;8.548;2023-08-08T08:36:06;100008.31;;;18.59;63.24
32298;BME280;18782;48.984;8.548;2023-08-08T08:38:34;100011.75;;;18.64;64.10
32298;BME280;18782;48.984;8.548;2023-08-08T08:41:02;100011.69;;;18.73;63.43
32298;BME280;18782;48.984;8.548;2023-08-08T08:43:30;100004.75;;;18.72;62.39
32298;BME280;18782;48.984;8.548;2023-08-08T08:46:00;100009.78;;;18.93;64.02
32298;BME280;18782;48.984;8.548;2023-08-08T08:48:29;100021.16;;;18.83;61.89
32298;BME280;18782;48.984;8.548;2023-08-08T08:50:59;100016.84;;;18.82;62.09
32298;BME280;18782;48.984;8.548;2023-08-08T08:53:27;100003.75;;;18.88;62.84
32298;BME280;18782;48.984;8.548;2023-08-08T08:55:56;100000.06;;;19.09;63.79
32298;BME280;18782;48.984;8.548;2023-08-08T08:58:25;99998.28;;;19.17;62.65
32298;BME280;18782;48.984;8.548;2023-08-08T09:00:54;100002.56;;;19.23;62.88
32298;BME280;18782;48.984;8.548;2023-08-08T09:03:24;100007.00;;;19.13;61.68
32298;BME280;18782;48.984;8.548;2023-08-08T09:05:52;99990.28;;;19.31;62.97
32298;BME280;18782;48.984;8.548;2023-08-08T09:08:22;100007.53;;;19.47;63.36
32298;BME280;18782;48.984;8.548;2023-08-08T09:10:50;99995.34;;;19.46;61.35
32298;BME280;18782;48.984;8.548;2023-08-08T09:13:18;99988.31;;;19.54;59.34
32298;BME280;18782;48.984;8.548;2023-08-08T09:15:49;99990.00;;;19.59;59.32
32298;BME280;18782;48.984;8.548;2023-08-08T09:18:17;99989.91;;;19.68;60.82
32298;BME280;18782;48.984;8.548;2023-08-08T09:20:47;99992.47;;;19.74;58.77
32298;BME280;18782;48.984;8.548;2023-08-08T09:23:14;99984.78;;;19.59;59.14
32298;BME280;18782;48.984;8.548;2023-08-08T09:25:43;99996.00;;;19.68;59.75
32298;BME280;18782;48.984;8.548;2023-08-08T09:28:11;99986.38;;;19.72;57.65
32298;BME280;18782;48.984;8.548;2023-08-08T09:30:40;99996.97;;;19.60;58.35
32298;BME280;18782;48.984;8.548;2023-08-08T09:33:08;99992.44;;;19.75;57.52
32298;BME280;18782;48.984;8.548;2023-08-08T09:35:38;100002.03;;;19.75;57.44
32298;BME280;18782;48.984;8.548;2023-08-08T09:38:06;100001.03;;;19.84;57.16
32298;BME280;18782;48.984;8.548;2023-08-08T09:40:34;99982.63;;;19.94;56.70
32298;BME280;18782;48.984;8.548;2023-08-08T09:43:06;99987.56;;;20.16;57.29
32298;BME280;18782;48.984;8.548;2023-08-08T09:45:37;99973.91;;;19.95;57.31
32298;BME280;18782;48.984;8.548;2023-08-08T09:48:06;99975.50;;;20.05;56.33
32298;BME280;18782;48.984;8.548;2023-08-08T09:50:35;99977.22;;;20.06;56.64
32298;BME280;18782;48.984;8.548;2023-08-08T09:53:03;99982.25;;;20.22;56.94
32298;BME280;18782;48.984;8.548;2023-08-08T09:55:33;99969.03;;;20.29;54.62
32298;BME280;18782;48.984;8.548;2023-08-08T09:58:03;99984.56;;;20.40;55.36
32298;BME280;18782;48.984;8.548;2023-08-08T10:00:31;99985.25;;;20.54;55.18
32298;BME280;18782;48.984;8.548;2023-08-08T10:03:00;99967.72;;;20.63;54.97
32298;BME280;18782;48.984;8.548;2023-08-08T10:05:29;99972.97;;;20.59;54.74
32298;BME280;18782;48.984;8.548;2023-08-08T10:07:57;99982.63;;;20.57;54.50
32298;BME280;18782;48.984;8.548;2023-08-08T10:10:25;99979.25;;;20.49;54.61
32298;BME280;18782;48.984;8.548;2023-08-08T10:12:53;99970.53;;;20.46;54.97
32298;BME280;18782;48.984;8.548;2023-08-08T10:15:26;99977.53;;;20.48;54.88
32298;BME280;18782;48.984;8.548;2023-08-08T10:17:56;99981.75;;;20.55;54.69
32298;BME280;18782;48.984;8.548;2023-08-08T10:20:24;99978.28;;;20.55;54.85
32298;BME280;18782;48.984;8.548;2023-08-08T10:22:53;99975.75;;;20.46;52.90
32298;BME280;18782;48.984;8.548;2023-08-08T10:25:26;99964.31;;;20.57;53.07
32298;BME280;18782;48.984;8.548;2023-08-08T10:28:05;99976.34;;;20.68;52.58
32298;BME280;18782;48.984;8.548;2023-08-08T10:30:55;99968.19;;;20.86;52.40
32298;BME280;18782;48.984;8.548;2023-08-08T10:33:24;100004.31;;;20.63;50.29
32298;BME280;18782;48.984;8.548;2023-08-08T10:35:59;99971.06;;;20.71;51.28
32298;BME280;18782;48.984;8.548;2023-08-08T10:38:39;99975.47;;;20.67;50.64
32298;BME280;18782;48.984;8.548;2023-08-08T10:41:09;99959.28;;;20.96;50.31
32298;BME280;18782;48.984;8.548;2023-08-08T10:43:38;99960.72;;;21.13;50.88
32298;BME280;18782;48.984;8.548;2023-08-08T10:46:08;99951.09;;;21.15;49.51
32298;BME280;18782;48.984;8.548;2023-08-08T10:48:49;99949.09;;;21.27;49.16
32298;BME280;18782;48.984;8.548;2023-08-08T10:51:16;99955.66;;;21.51;50.24
32298;BME280;18782;48.984;8.548;2023-08-08T10:53:45;99940.41;;;21.70;50.28
32298;BME280;18782;48.984;8.548;2023-08-08T10:56:13;99954.19;;;21.80;49.53
32298;BME280;18782;48.984;8.548;2023-08-08T10:58:46;99959.97;;;21.54;48.50
32298;BME280;18782;48.984;8.548;2023-08-08T11:01:16;99954.47;;;21.66;49.58
32298;BME280;18782;48.984;8.548;2023-08-08T11:03:45;99955.88;;;21.82;49.38
32298;BME280;18782;48.984;8.548;2023-08-08T11:06:16;99942.66;;;21.87;49.47
32298;BME280;18782;48.984;8.548;2023-08-08T11:08:44;99944.47;;;21.85;49.85
32298;BME280;18782;48.984;8.548;2023-08-08T11:11:11;99946.09;;;22.31;49.50
32298;BME280;18782;48.984;8.548;2023-08-08T11:13:39;99939.22;;;22.25;48.32
32298;BME280;18782;48.984;8.548;2023-08-08T11:16:07;99944.63;;;22.19;46.68
32298;BME280;18782;48.984;8.548;2023-08-08T11:18:36;99943.75;;;22.19;46.63
32298;BME280;18782;48.984;8.548;2023-08-08T11:21:09;99933.28;;;22.19;43.58
32298;BME280;18782;48.984;8.548;2023-08-08T11:23:45;99943.38;;;22.34;43.77
32298;BME280;18782;48.984;8.548;2023-08-08T11:26:16;99933.25;;;22.54;43.57
32298;BME280;18782;48.984;8.548;2023-08-08T11:28:49;99943.91;;;22.48;43.34
32298;BME280;18782;48.984;8.548;2023-08-08T11:31:17;99945.63;;;22.51;42.26
32298;BME280;18782;48.984;8.548;2023-08-08T11:33:47;99944.66;;;22.53;44.39
32298;BME280;18782;48.984;8.548;2023-08-08T11:36:15;99948.50;;;22.40;42.59
32298;BME280;18782;48.984;8.548;2023-08-08T11:38:43;99930.34;;;22.66;43.36
32298;BME280;18782;48.984;8.548;2023-08-08T11:41:11;99939.19;;;22.98;43.35
32298;BME280;18782;48.984;8.548;2023-08-08T11:43:40;99943.91;;;23.18;42.96
32298;BME280;18782;48.984;8.548;2023-08-08T11:46:08;99956.66;;;22.99;40.48
32298;BME280;18782;48.984;8.548;2023-08-08T11:48:37;99936.81;;;22.86;41.60
32298;BME280;18782;48.984;8.548;2023-08-08T11:51:07;99938.28;;;22.99;42.85
32298;BME280;18782;48.984;8.548;2023-08-08T11:53:35;99939.03;;;22.69;42.37
32298;BME280;18782;48.984;8.548;2023-08-08T11:56:03;99920.81;;;22.98;42.55
32298;BME280;18782;48.984;8.548;2023-08-08T11:58:32;99916.19;;;23.06;43.01
32298;BME280;18782;48.984;8.548;2023-08-08T12:00:59;99911.38;;;23.24;42.07
32298;BME280;18782;48.984;8.548;2023-08-08T12:03:27;99913.63;;;23.36;42.33
32298;BME280;18782;48.984;8.548;2023-08-08T12:05:55;99931.16;;;23.35;41.70
32298;BME280;18782;48.984;8.548;2023-08-08T12:08:24;99931.41;;;23.57;43.04
32298;BME280;18782;48.984;8.548;2023-08-08T12:10:52;99914.38;;;23.72;43.72
32298;BME280;18782;48.984;8.548;2023-08-08T12:13:23;99921.34;;;23.73;43.08
32298;BME280;18782;48.984;8.548;2023-08-08T12:15:52;99914.47;;;23.97;43.90
32298;BME280;18782;48.984;8.548;2023-08-08T12:18:22;99905.63;;;24.28;43.57
32298;BME280;18782;48.984;8.548;2023-08-08T12:20:49;99900.56;;;24.48;43.67
32298;BME280;18782;48.984;8.548;2023-08-08T12:23:17;99907.03;;;25.16;42.52
32298;BME280;18782;48.984;8.548;2023-08-08T12:25:46;99894.34;;;25.50;42.05
32298;BME280;18782;48.984;8.548;2023-08-08T12:28:14;99909.28;;;24.77;42.06
32298;BME280;18782;48.984;8.548;2023-08-08T12:30:41;99893.50;;;25.00;42.75
32298;BME280;18782;48.984;8.548;2023-08-08T12:33:09;99906.13;;;24.92;40.76
32298;BME280;18782;48.984;8.548;2023-08-08T12:35:37;99897.72;;;25.31;41.78
32298;BME280;18782;48.984;8.548;2023-08-08T12:38:05;99897.16;;;25.46;38.96
32298;BME280;18782;48.984;8.548;2023-08-08T12:40:33;99906.06;;;25.42;37.81
32298;BME280;18782;48.984;8.548;2023-08-08T12:43:02;99905.88;;;24.98;38.49
32298;BME280;18782;48.984;8.548;2023-08-08T12:45:30;99904.97;;;24.99;38.72
32298;BME280;18782;48.984;8.548;2023-08-08T12:47:58;99902.41;;;25.69;37.73
32298;BME280;18782;48.984;8.548;2023-08-08T12:50:25;99909.94;;;25.08;37.88
32298;BME280;18782;48.984;8.548;2023-08-08T12:52:54;99914.56;;;25.50;36.82
32298;BME280;18782;48.984;8.548;2023-08-08T12:55:22;99902.53;;;26.12;36.18
32298;BME280;18782;48.984;8.548;2023-08-08T12:57:50;99905.56;;;26.67;35.80
32298;BME280;18782;48.984;8.548;2023-08-08T13:00:19;99907.63;;;27.21;35.55